Time;durP1;ratioP1;P1;durP2;ratioP2;P2;SDS_P1;SDS_P2;PMS_P1;PMS_P2;Temp;Humidity;BMP_temperature;BMP_pressure;BME280_temperature;BME280_humidity;BME280_pressure;Samples;Min_cycle;Max_cycle;Signal;HPM_P1;HPM_P2
2022/01/09 00:01:56;;;;;;;964.52;450.53;;;;;;;1.81;71.04;93517.85;1775835;80;21565;-49
2022/01/09 00:04:25;;;;;;;549.12;286.95;;;;;;;1.75;71.62;93505.38;1764178;80;21116;-50
2022/01/09 00:06:52;;;;;;;416.57;227.55;;;;;;;1.81;71.41;93503.69;1755603;81;21078;-50
2022/01/09 00:09:20;;;;;;;400.85;222.80;;;;;;;1.78;71.60;93504.53;1739632;80;21068;-50
2022/01/09 00:11:47;;;;;;;362.38;198.75;;;;;;;1.83;71.65;93499.22;1759229;80;21423;-50
2022/01/09 00:14:14;;;;;;;366.95;206.05;;;;;;;1.92;71.64;93493.98;1734013;80;21052;-50
2022/01/09 00:16:42;;;;;;;366.30;204.18;;;;;;;2.02;71.48;93490.25;1752578;80;21154;-50
2022/01/09 00:19:09;;;;;;;343.00;193.70;;;;;;;2.11;71.23;93493.89;1776847;80;20986;-49
2022/01/09 00:21:36;;;;;;;357.45;200.62;;;;;;;2.16;70.99;93495.34;1768224;80;20962;-50
2022/01/09 00:24:03;;;;;;;427.02;234.12;;;;;;;2.21;70.73;93500.25;1746000;80;21586;-50
2022/01/09 00:26:30;;;;;;;464.23;250.70;;;;;;;2.16;70.47;93498.06;1757969;80;21005;-50
2022/01/09 00:28:56;;;;;;;405.57;224.75;;;;;;;2.11;70.52;93486.37;1720291;80;21772;-50
2022/01/09 00:31:23;;;;;;;438.72;238.10;;;;;;;2.08;70.51;93481.77;1779254;80;21050;-51
2022/01/09 00:33:49;;;;;;;411.20;229.90;;;;;;;2.03;70.71;93486.34;1741648;80;21084;-50
2022/01/09 00:36:16;;;;;;;419.47;234.32;;;;;;;2.05;70.76;93493.47;1760031;80;21009;-50
2022/01/09 00:38:44;;;;;;;384.85;212.53;;;;;;;2.11;70.90;93489.08;1763648;80;21026;-50
2022/01/09 00:41:11;;;;;;;381.35;214.25;;;;;;;2.20;70.47;93479.74;1756928;80;21126;-50
2022/01/09 00:43:43;;;;;;;399.77;226.82;;;;;;;2.11;70.10;93479.59;1758553;80;20999;-50
2022/01/09 00:46:10;;;;;;;;;;;;;;;1.93;70.44;93479.24;1776179;80;21454;-49
2022/01/09 00:48:37;;;;;;;385.32;221.80;;;;;;;1.78;70.69;93474.72;1768869;80;20133;-50
2022/01/09 00:51:10;;;;;;;392.25;222.25;;;;;;;1.67;71.40;93462.59;1751550;80;21073;-50
2022/01/09 00:53:37;;;;;;;398.45;229.95;;;;;;;1.70;71.62;93467.77;1732475;81;21106;-50
2022/01/09 00:56:04;;;;;;;414.50;235.75;;;;;;;1.66;71.46;93464.39;1743536;80;21044;-51
2022/01/09 00:58:31;;;;;;;407.08;231.70;;;;;;;1.60;71.56;93453.28;1758759;80;20971;-50
2022/01/09 01:00:59;;;;;;;416.08;234.87;;;;;;;1.59;72.02;93456.41;1753363;80;21014;-49
2022/01/09 01:03:27;;;;;;;399.55;228.83;;;;;;;1.61;72.17;93446.67;1766812;80;21077;-50
2022/01/09 01:05:54;;;;;;;409.45;231.60;;;;;;;1.66;72.10;93452.20;1744897;80;21229;-50
2022/01/09 01:08:21;;;;;;;399.62;224.15;;;;;;;1.60;71.92;93438.37;1758617;80;20991;-51
2022/01/09 01:10:47;;;;;;;434.70;250.30;;;;;;;1.55;72.03;93430.77;1727183;80;20954;-49
2022/01/09 01:13:14;;;;;;;431.20;250.78;;;;;;;1.45;72.06;93429.04;1769667;80;21513;-49
2022/01/09 01:15:41;;;;;;;438.55;256.75;;;;;;;1.39;72.53;93428.02;1751032;80;21008;-49
2022/01/09 01:18:09;;;;;;;440.82;258.00;;;;;;;1.44;72.69;93422.67;1763673;80;21130;-50
2022/01/09 01:20:36;;;;;;;416.25;234.05;;;;;;;1.42;72.46;93422.34;1770855;80;20990;-52
2022/01/09 01:23:09;;;;;;;418.10;238.15;;;;;;;1.35;72.53;93414.38;1738779;81;21022;-50
2022/01/09 01:25:36;;;;;;;549.20;303.25;;;;;;;1.25;72.70;93413.44;1756927;80;21018;-49
2022/01/09 01:28:03;;;;;;;391.38;221.07;;;;;;;1.22;73.14;93415.63;1762781;80;21584;-50
2022/01/09 01:30:30;;;;;;;431.70;247.70;;;;;;;1.21;73.05;93410.05;1764162;80;21951;-50
2022/01/09 01:32:58;;;;;;;400.57;233.43;;;;;;;1.05;73.10;93405.94;1758235;80;21099;-50
2022/01/09 01:35:25;;;;;;;421.33;241.42;;;;;;;0.99;73.61;93419.78;1764636;80;21073;-49
2022/01/09 01:37:51;;;;;;;399.37;229.35;;;;;;;0.96;73.98;93421.97;1733869;81;20998;-49
2022/01/09 01:40:19;;;;;;;422.63;238.35;;;;;;;0.95;73.87;93413.69;1761182;80;21533;-51
2022/01/09 01:42:46;;;;;;;428.77;250.43;;;;;;;0.89;74.08;93416.72;1763408;80;21166;-50
2022/01/09 01:45:18;;;;;;;413.80;240.30;;;;;;;0.88;74.25;93421.18;1772541;80;21057;-49
2022/01/09 01:47:48;;;;;;;415.47;239.68;;;;;;;0.91;74.66;93406.23;1760137;80;21124;-50
2022/01/09 01:50:14;;;;;;;436.02;252.25;;;;;;;1.02;74.90;93404.08;1729856;80;21081;-50
2022/01/09 01:52:47;;;;;;;426.55;246.03;;;;;;;1.21;74.95;93408.69;1780223;80;20979;-50
2022/01/09 01:55:14;;;;;;;;;;;;;;;1.37;74.37;93403.30;1755521;80;21804;-51
2022/01/09 01:57:42;;;;;;;456.52;265.40;;;;;;;1.38;73.92;93401.34;1761476;80;20129;-49
2022/01/09 02:00:13;;;;;;;447.48;255.62;;;;;;;1.42;74.25;93399.31;1762604;80;20989;-50
2022/01/09 02:02:40;;;;;;;468.40;259.48;;;;;;;1.55;74.21;93399.59;1746675;80;20947;-50
2022/01/09 02:05:08;;;;;;;442.05;262.90;;;;;;;1.58;73.49;93393.33;1767296;80;21061;-50
2022/01/09 02:07:37;;;;;;;433.90;248.30;;;;;;;1.55;73.52;93388.77;1780139;80;21116;-51
2022/01/09 02:10:08;;;;;;;459.77;263.20;;;;;;;1.61;73.53;93387.64;1751619;80;20999;-49
2022/01/09 02:12:40;;;;;;;441.82;261.43;;;;;;;1.67;73.75;93386.72;1755693;80;26944;-49
2022/01/09 02:15:30;;;;;;;442.80;256.02;;;;;;;1.78;73.30;93380.45;1769064;80;20954;-51
2022/01/09 02:17:56;;;;;;;433.55;250.50;;;;;;;1.84;72.87;93382.81;1720996;82;21060;-50
2022/01/09 02:20:23;;;;;;;433.38;247.80;;;;;;;1.81;72.38;93379.60;1687798;83;21133;-52
2022/01/09 02:22:50;;;;;;;439.90;246.57;;;;;;;1.73;72.46;93372.23;1713211;82;21050;-50
2022/01/09 02:25:17;;;;;;;444.90;250.72;;;;;;;1.71;72.56;93367.66;1722006;80;21096;-51
2022/01/09 02:27:43;;;;;;;419.97;243.17;;;;;;;1.67;72.50;93366.39;1721851;82;21482;-52
2022/01/09 02:30:10;;;;;;;415.65;236.90;;;;;;;1.65;72.80;93366.05;1773843;80;20982;-51
2022/01/09 02:32:37;;;;;;;434.03;251.20;;;;;;;1.65;72.87;93353.11;1754007;80;21202;-50
2022/01/09 02:35:05;;;;;;;437.72;256.55;;;;;;;1.68;72.92;93352.26;1737689;81;21077;-50
2022/01/09 02:37:32;;;;;;;401.00;238.25;;;;;;;1.73;72.87;93351.91;1759834;80;21051;-51
2022/01/09 02:39:59;;;;;;;436.60;244.87;;;;;;;1.71;72.65;93356.22;1737510;81;20971;-49
2022/01/09 02:42:28;;;;;;;400.02;232.15;;;;;;;1.59;72.64;93348.79;1760295;80;20995;-51
2022/01/09 02:44:55;;;;;;;412.38;233.15;;;;;;;1.51;72.87;93348.77;1761807;80;21086;-52
2022/01/09 02:47:23;;;;;;;418.07;244.20;;;;;;;1.43;73.04;93352.07;1755340;80;21002;-50
2022/01/09 02:49:52;;;;;;;381.05;220.00;;;;;;;1.34;73.37;93348.59;1752808;80;20949;-51
2022/01/09 02:52:34;;;;;;;378.80;214.68;;;;;;;1.36;73.61;93350.28;1756717;80;21097;-49
2022/01/09 02:55:14;;;;;;;352.75;197.00;;;;;;;1.33;73.70;93346.33;1763922;80;20950;-50
2022/01/09 02:57:46;;;;;;;354.17;200.87;;;;;;;1.32;73.67;93337.42;1777149;80;21152;-50
2022/01/09 03:00:18;;;;;;;362.70;201.35;;;;;;;1.27;73.82;93337.16;1773885;80;21272;-50
2022/01/09 03:02:45;;;;;;;390.97;229.27;;;;;;;1.25;74.24;93330.83;1762556;80;21488;-50
2022/01/09 03:05:16;;;;;;;379.75;211.85;;;;;;;1.30;74.30;93334.98;1758103;80;21022;-50
2022/01/09 03:07:44;;;;;;;350.73;197.10;;;;;;;1.30;74.16;93330.31;1763373;80;21066;-51
2022/01/09 03:10:12;;;;;;;371.73;215.75;;;;;;;1.26;74.10;93326.94;1763678;80;21501;-51
2022/01/09 03:12:39;;;;;;;386.35;219.05;;;;;;;1.21;74.28;93320.68;1762430;80;21033;-52
2022/01/09 03:15:08;;;;;;;409.77;241.48;;;;;;;1.27;74.46;93323.62;1748834;80;21093;-51
2022/01/09 03:17:34;;;;;;;410.13;235.68;;;;;;;1.31;74.47;93319.66;1777100;80;21002;-49
2022/01/09 03:20:01;;;;;;;412.82;243.60;;;;;;;1.41;74.50;93319.23;1771034;80;20959;-51
2022/01/09 03:22:30;;;;;;;414.35;245.97;;;;;;;1.45;74.18;93319.32;1765112;80;21410;-51
2022/01/09 03:24:58;;;;;;;410.57;242.85;;;;;;;1.48;74.49;93317.11;1769036;80;21470;-52
2022/01/09 03:27:26;;;;;;;410.27;238.00;;;;;;;1.56;74.22;93323.13;1773471;80;21004;-50
2022/01/09 03:29:53;;;;;;;394.62;229.75;;;;;;;1.60;73.92;93317.80;1762052;80;21507;-51
2022/01/09 03:32:19;;;;;;;397.57;233.32;;;;;;;1.62;73.76;93311.93;1754032;79;20942;-50
2022/01/09 03:34:46;;;;;;;382.45;223.03;;;;;;;1.57;73.56;93313.23;1714812;81;21101;-50
2022/01/09 03:37:14;;;;;;;404.60;234.35;;;;;;;1.56;73.81;93307.64;1759954;80;21668;-49
2022/01/09 03:39:40;;;;;;;378.02;212.93;;;;;;;1.54;73.66;93314.05;1747865;80;21058;-50
2022/01/09 03:42:07;;;;;;;404.02;237.80;;;;;;;1.53;73.72;93308.47;1746248;80;21461;-50
2022/01/09 03:44:34;;;;;;;394.30;232.83;;;;;;;1.48;73.93;93314.41;1758434;80;21067;-50
2022/01/09 03:47:02;;;;;;;373.02;218.48;;;;;;;1.55;74.51;93315.60;1752816;80;21133;-51
2022/01/09 03:49:30;;;;;;;351.77;204.15;;;;;;;1.62;74.16;93303.22;1772640;80;21057;-52
2022/01/09 03:51:58;;;;;;;358.52;208.65;;;;;;;1.65;74.27;93296.95;1763238;80;21083;-49
2022/01/09 03:54:24;;;;;;;358.85;209.57;;;;;;;1.78;74.50;93299.14;1777925;80;20986;-50
2022/01/09 03:56:52;;;;;;;373.98;216.78;;;;;;;1.93;73.83;93311.14;1755525;80;20993;-51
2022/01/09 03:59:19;;;;;;;367.98;211.37;;;;;;;1.96;73.59;93300.80;1755892;80;21151;-50
2022/01/09 04:01:47;;;;;;;377.22;219.62;;;;;;;2.05;73.71;93296.28;1730755;80;21214;-50
2022/01/09 04:04:14;;;;;;;362.40;212.50;;;;;;;2.11;73.24;93299.98;1769137;80;21046;-50
2022/01/09 04:06:48;;;;;;;381.93;223.30;;;;;;;2.19;73.23;93299.20;1731735;80;21093;-52
2022/01/09 04:09:20;;;;;;;394.60;220.12;;;;;;;2.31;72.98;93302.55;1759026;80;20978;-50
2022/01/09 04:11:47;;;;;;;356.67;199.80;;;;;;;2.31;71.74;93303.91;1765012;80;21142;-51
2022/01/09 04:14:18;;;;;;;376.00;207.60;;;;;;;2.31;71.74;93303.91;1740112;80;21901;-51
2022/01/09 04:16:48;;;;;;;352.55;201.37;;;;;;;2.15;72.07;93304.71;1753828;80;21137;-50
2022/01/09 04:19:16;;;;;;;373.52;217.53;;;;;;;2.15;72.21;93305.31;1767136;80;20997;-50
2022/01/09 04:21:45;;;;;;;352.57;206.57;;;;;;;2.09;72.08;93304.30;1766097;80;21487;-49
2022/01/09 04:24:13;;;;;;;355.10;200.75;;;;;;;2.05;72.56;93296.86;1764819;80;21141;-51
2022/01/09 04:26:40;;;;;;;382.50;225.28;;;;;;;2.09;72.22;93294.81;1769490;80;20987;-50
2022/01/09 04:29:06;;;;;;;352.32;198.78;;;;;;;2.05;72.36;93290.08;1770095;80;21474;-50
2022/01/09 04:31:33;;;;;;;329.27;187.12;;;;;;;2.06;72.25;93291.60;1757736;80;20999;-50
2022/01/09 04:34:00;;;;;;;351.88;202.03;;;;;;;1.97;71.94;93294.19;1766212;80;20990;-49
2022/01/09 04:36:26;;;;;;;337.25;197.95;;;;;;;1.81;72.25;93290.89;1720376;80;21110;-51
2022/01/09 04:38:54;;;;;;;331.75;198.68;;;;;;;1.73;72.53;93291.50;1748850;80;21080;-52
2022/01/09 04:41:21;;;;;;;363.73;211.25;;;;;;;1.65;72.63;93287.46;1759445;80;21030;-50
2022/01/09 04:43:49;;;;;;;359.30;209.80;;;;;;;1.59;73.01;93286.47;1758189;80;21011;-51
2022/01/09 04:46:22;;;;;;;347.02;204.10;;;;;;;1.57;73.14;93286.71;1752398;80;20974;-51
2022/01/09 04:48:46;;;;;;;360.75;215.07;;;;;;;1.56;73.15;93296.03;1754262;80;21008;-50
2022/01/09 04:51:14;;;;;;;361.45;217.97;;;;;;;1.53;73.50;93286.05;1741719;80;21474;-51
2022/01/09 04:53:41;;;;;;;381.93;224.05;;;;;;;1.58;73.65;93295.78;1755212;80;21555;-50
2022/01/09 04:56:08;;;;;;;382.43;222.45;;;;;;;1.65;73.58;93300.27;1751535;80;20962;-50
2022/01/09 04:58:34;;;;;;;383.43;229.70;;;;;;;1.65;73.30;93295.59;1754058;80;21036;-50
2022/01/09 05:01:01;;;;;;;378.98;222.25;;;;;;;1.61;73.43;93288.73;1769347;80;21148;-49
2022/01/09 05:03:32;;;;;;;376.05;223.93;;;;;;;1.68;73.95;93299.41;1771465;80;21454;-51
2022/01/09 05:05:58;;;;;;;368.70;219.85;;;;;;;1.79;73.44;93304.12;1744272;80;20966;-50
2022/01/09 05:08:25;;;;;;;362.52;212.60;;;;;;;1.82;73.01;93298.45;1749973;80;21068;-50
2022/01/09 05:10:55;;;;;;;320.35;191.12;;;;;;;1.75;72.94;93291.86;1748203;80;21572;-50
2022/01/09 05:13:25;;;;;;;309.83;177.82;;;;;;;1.70;72.86;93289.65;1757706;80;21146;-51
2022/01/09 05:15:51;;;;;;;330.85;197.17;;;;;;;1.57;72.93;93296.97;1715188;80;21029;-50
2022/01/09 05:18:20;;;;;;;343.48;207.30;;;;;;;1.41;73.19;93294.27;1772520;80;21002;-52
2022/01/09 05:20:48;;;;;;;327.93;200.85;;;;;;;1.36;73.62;93293.41;1779757;80;21458;-51
2022/01/09 05:23:15;;;;;;;340.27;203.77;;;;;;;1.37;73.75;93293.60;1779313;80;20990;-50
2022/01/09 05:25:43;;;;;;;358.93;206.47;;;;;;;1.40;74.08;93288.69;1728572;81;21065;-50
2022/01/09 05:28:10;;;;;;;341.23;200.57;;;;;;;1.52;74.16;93285.27;1760301;80;21053;-50
2022/01/09 05:30:36;;;;;;;362.02;208.80;;;;;;;1.58;73.64;93284.94;1722660;81;21054;-51
2022/01/09 05:33:03;;;;;;;378.75;212.40;;;;;;;1.60;73.62;93282.56;1753578;80;21549;-51
2022/01/09 05:35:29;;;;;;;361.85;215.15;;;;;;;1.61;73.64;93273.25;1745599;80;21014;-50
2022/01/09 05:37:56;;;;;;;396.27;229.97;;;;;;;1.64;73.54;93277.81;1757296;80;21778;-51
2022/01/09 05:40:22;;;;;;;370.90;216.27;;;;;;;1.66;73.77;93270.02;1756749;80;21041;-50
2022/01/09 05:42:51;;;;;;;399.92;225.72;;;;;;;1.77;73.89;93275.32;1744643;80;20967;-51
2022/01/09 05:45:18;;;;;;;397.57;230.62;;;;;;;1.88;73.70;93292.66;1712245;81;21010;-51
2022/01/09 05:47:45;;;;;;;387.95;227.28;;;;;;;2.00;73.39;93293.33;1764958;80;21017;-52
2022/01/09 05:50:12;;;;;;;390.23;229.65;;;;;;;2.04;72.75;93288.56;1766824;80;21133;-53
2022/01/09 05:52:40;;;;;;;403.92;232.57;;;;;;;2.04;72.86;93286.63;1764078;80;21699;-53
2022/01/09 05:55:08;;;;;;;402.20;233.30;;;;;;;2.06;72.59;93295.67;1765270;80;21041;-52
2022/01/09 05:57:35;;;;;;;423.75;240.03;;;;;;;1.98;72.44;93301.13;1766553;80;21482;-52
2022/01/09 06:00:03;;;;;;;418.85;240.52;;;;;;;1.95;72.59;93297.92;1771362;80;21049;-51
2022/01/09 06:02:30;;;;;;;412.75;240.20;;;;;;;1.89;72.61;93286.83;1769477;80;21825;-49
2022/01/09 06:04:58;;;;;;;375.85;212.00;;;;;;;1.89;73.08;93286.05;1759257;80;20971;-52
2022/01/09 06:07:25;;;;;;;393.60;219.00;;;;;;;1.97;73.15;93283.34;1755504;80;21428;-50
2022/01/09 06:09:51;;;;;;;379.77;221.70;;;;;;;1.94;72.76;93285.55;1764957;80;20950;-51
2022/01/09 06:12:18;;;;;;;405.13;230.87;;;;;;;1.87;73.09;93300.63;1772882;80;20990;-54
2022/01/09 06:14:44;;;;;;;390.68;228.00;;;;;;;1.93;73.06;93298.95;1739219;81;21130;-52
2022/01/09 06:17:11;;;;;;;364.05;215.80;;;;;;;1.97;72.91;93300.96;1748912;80;20967;-51
2022/01/09 06:19:38;;;;;;;363.75;207.37;;;;;;;1.96;72.66;93298.83;1750054;80;21136;-50
2022/01/09 06:22:05;;;;;;;343.80;202.62;;;;;;;1.96;72.81;93292.66;1765013;80;20983;-50
2022/01/09 06:24:33;;;;;;;323.70;193.50;;;;;;;1.97;72.61;93311.80;1757819;80;21005;-51
2022/01/09 06:27:02;;;;;;;317.77;188.32;;;;;;;1.93;72.52;93300.30;1737434;81;21090;-51
2022/01/09 06:29:29;;;;;;;357.00;208.57;;;;;;;1.84;72.50;93298.78;1768223;80;20987;-52
2022/01/09 06:31:55;;;;;;;376.02;214.90;;;;;;;1.73;72.75;93284.73;1749181;81;21073;-52
2022/01/09 06:34:21;;;;;;;382.90;219.25;;;;;;;1.75;73.61;93289.16;1769203;80;20986;-51
2022/01/09 06:36:48;;;;;;;372.80;217.80;;;;;;;1.92;73.68;93293.36;1753028;80;20938;-52
2022/01/09 06:39:16;;;;;;;385.15;222.93;;;;;;;2.06;73.52;93288.89;1759583;80;21760;-52
2022/01/09 06:41:45;;;;;;;359.90;214.20;;;;;;;2.19;72.94;93289.70;1737598;80;21086;-51
2022/01/09 06:44:14;;;;;;;402.55;236.60;;;;;;;2.24;72.48;93284.52;1753449;80;21013;-51
2022/01/09 06:46:41;;;;;;;421.07;238.35;;;;;;;2.23;72.05;93292.49;1753456;80;20951;-51
2022/01/09 06:49:08;;;;;;;437.77;242.53;;;;;;;2.15;71.99;93283.63;1755766;80;20971;-52
2022/01/09 06:51:36;;;;;;;453.55;264.05;;;;;;;2.16;72.28;93286.50;1752901;80;20986;-51
2022/01/09 06:54:05;;;;;;;446.93;260.85;;;;;;;2.13;72.02;93288.11;1754476;80;21565;-52
2022/01/09 06:56:32;;;;;;;453.20;265.02;;;;;;;2.16;72.26;93278.36;1762317;81;21439;-51
2022/01/09 06:59:00;;;;;;;434.43;256.13;;;;;;;2.27;72.43;93281.52;1756949;80;20999;-51
2022/01/09 07:01:26;;;;;;;432.58;255.18;;;;;;;2.39;72.18;93284.30;1731615;81;21613;-51
2022/01/09 07:03:53;;;;;;;454.42;271.05;;;;;;;2.46;71.56;93284.66;1753157;80;21101;-51
2022/01/09 07:06:20;;;;;;;488.30;289.72;;;;;;;2.45;71.42;93294.00;1761669;80;21427;-52
2022/01/09 07:08:46;;;;;;;475.32;280.85;;;;;;;2.46;71.44;93287.38;1747848;80;21044;-51
2022/01/09 07:11:13;;;;;;;412.85;242.00;;;;;;;2.46;71.13;93290.87;1755328;80;21033;-50
2022/01/09 07:13:42;;;;;;;408.77;249.12;;;;;;;2.34;70.86;93296.27;1722056;82;20963;-51
2022/01/09 07:16:13;;;;;;;402.97;233.55;;;;;;;2.10;71.17;93288.22;1735712;80;21170;-53
2022/01/09 07:18:41;;;;;;;420.10;245.80;;;;;;;1.95;71.59;93288.43;1748581;80;20947;-51
2022/01/09 07:21:07;;;;;;;397.42;234.30;;;;;;;1.79;72.00;93278.98;1780021;80;20990;-50
2022/01/09 07:23:34;;;;;;;424.45;245.95;;;;;;;1.69;72.38;93270.52;1758354;80;21057;-52
2022/01/09 07:26:03;;;;;;;383.25;225.32;;;;;;;1.63;72.87;93272.23;1780144;80;20958;-51
2022/01/09 07:28:32;;;;;;;375.60;225.38;;;;;;;1.65;73.42;93277.23;1768853;80;22414;-52
2022/01/09 07:30:59;;;;;;;447.73;273.43;;;;;;;1.65;73.26;93287.46;1751216;80;21446;-52
2022/01/09 07:33:25;;;;;;;419.77;254.95;;;;;;;1.61;73.69;93292.80;1733637;80;20982;-51
2022/01/09 07:35:52;;;;;;;441.95;265.82;;;;;;;1.67;73.78;93281.02;1769531;80;21010;-52
2022/01/09 07:38:20;;;;;;;435.95;261.00;;;;;;;1.76;74.00;93281.94;1780110;80;20947;-52
2022/01/09 07:40:51;;;;;;;413.05;247.00;;;;;;;1.92;73.65;93281.16;1763652;80;21222;-51
2022/01/09 07:43:20;;;;;;;424.98;257.75;;;;;;;2.03;73.40;93278.91;1733945;80;20983;-53
2022/01/09 07:45:47;;;;;;;437.18;267.40;;;;;;;2.05;73.00;93276.52;1757206;80;20994;-51
2022/01/09 07:48:14;;;;;;;434.25;265.43;;;;;;;2.08;73.26;93279.15;1756378;80;21063;-51
2022/01/09 07:50:41;;;;;;;446.00;273.75;;;;;;;2.17;72.96;93280.63;1757950;80;20983;-50
2022/01/09 07:53:07;;;;;;;458.05;291.65;;;;;;;2.19;72.62;93278.86;1762472;80;21086;-50
2022/01/09 07:55:34;;;;;;;485.52;306.40;;;;;;;2.27;72.99;93278.81;1739614;81;21545;-51
2022/01/09 07:58:00;;;;;;;481.52;304.65;;;;;;;2.38;72.65;93284.71;1754882;80;21002;-51
2022/01/09 08:00:27;;;;;;;453.08;286.48;;;;;;;2.50;72.72;93281.28;1750432;80;21017;-52
2022/01/09 08:02:54;;;;;;;445.20;283.93;;;;;;;2.61;72.02;93280.36;1729601;81;21097;-52
2022/01/09 08:05:21;;;;;;;474.27;306.63;;;;;;;2.58;71.79;93294.22;1755246;80;21426;-52
2022/01/09 08:07:49;;;;;;;503.58;332.37;;;;;;;2.53;71.70;93286.58;1738237;80;20991;-51
2022/01/09 08:10:18;;;;;;;498.55;317.43;;;;;;;2.52;71.75;93286.42;1761107;80;20971;-51
2022/01/09 08:12:44;;;;;;;501.82;321.10;;;;;;;2.49;71.94;93294.69;1734105;80;21026;-52
2022/01/09 08:15:12;;;;;;;508.62;325.70;;;;;;;2.51;72.07;93293.66;1767084;80;20958;-51
2022/01/09 08:17:46;;;;;;;477.58;308.27;;;;;;;2.52;71.82;93292.46;1748661;80;21146;-52
2022/01/09 08:20:17;;;;;;;440.90;283.45;;;;;;;2.53;71.87;93289.91;1767197;80;21440;-51
2022/01/09 08:22:44;;;;;;;469.30;313.60;;;;;;;2.54;71.69;93294.89;1773687;80;21030;-54
2022/01/09 08:25:13;;;;;;;468.50;306.20;;;;;;;2.48;71.80;93298.59;1771856;80;20952;-54
2022/01/09 08:27:43;;;;;;;462.75;308.25;;;;;;;2.46;71.85;93300.95;1756055;80;21174;-52
2022/01/09 08:30:12;;;;;;;486.02;326.82;;;;;;;2.42;71.93;93293.51;1751457;80;21131;-53
2022/01/09 08:32:39;;;;;;;494.93;324.37;;;;;;;2.42;72.32;93293.51;1761623;81;21428;-50
2022/01/09 08:35:07;;;;;;;467.40;318.02;;;;;;;2.67;72.52;93297.65;1745256;80;21010;-50
2022/01/09 08:37:34;;;;;;;458.25;303.30;;;;;;;2.96;71.97;93301.81;1772983;80;21454;-51
2022/01/09 08:40:00;;;;;;;432.50;286.35;;;;;;;3.14;70.96;93297.19;1738063;80;20962;-51
2022/01/09 08:42:27;;;;;;;426.55;278.05;;;;;;;3.19;70.79;93291.98;1748833;80;21545;-51
2022/01/09 08:44:54;;;;;;;423.55;275.45;;;;;;;3.36;70.81;93296.69;1754920;80;21011;-52
2022/01/09 08:47:22;;;;;;;337.65;206.30;;;;;;;3.51;69.93;93296.56;1756887;80;21432;-51
2022/01/09 08:49:49;;;;;;;226.75;144.70;;;;;;;3.53;69.48;93290.08;1706780;82;21183;-51
2022/01/09 08:52:15;;;;;;;206.28;131.87;;;;;;;3.53;69.00;93279.20;1760671;80;21006;-51
2022/01/09 08:54:42;;;;;;;249.98;156.37;;;;;;;3.58;68.76;93284.12;1753473;80;21113;-53
2022/01/09 08:57:10;;;;;;;258.35;165.18;;;;;;;3.68;68.82;93291.15;1765918;80;20947;-52
2022/01/09 08:59:37;;;;;;;236.87;152.25;;;;;;;3.97;68.60;93284.16;1756384;80;21056;-53
2022/01/09 09:02:04;;;;;;;217.43;138.52;;;;;;;4.16;67.93;93285.25;1772844;80;21011;-52
2022/01/09 09:04:34;;;;;;;242.13;155.10;;;;;;;4.22;67.49;93282.11;1732728;80;20974;-54
2022/01/09 09:07:00;;;;;;;232.62;150.78;;;;;;;4.24;67.11;93278.34;1761997;80;21872;-50
2022/01/09 09:09:27;;;;;;;186.62;124.22;;;;;;;4.23;66.95;93274.72;1760661;80;21002;-52
2022/01/09 09:11:54;;;;;;;148.97;101.00;;;;;;;4.20;66.82;93280.44;1766391;80;21521;-51
2022/01/09 09:14:22;;;;;;;141.97;94.32;;;;;;;4.08;66.44;93271.71;1746674;80;21014;-53
2022/01/09 09:16:51;;;;;;;165.12;103.20;;;;;;;3.92;66.93;93265.10;1737482;80;21136;-53
2022/01/09 09:19:18;;;;;;;151.97;98.82;;;;;;;3.93;67.45;93259.82;1763772;80;21161;-51
2022/01/09 09:21:46;;;;;;;157.78;97.45;;;;;;;4.14;67.19;93254.22;1732798;80;20999;-55
2022/01/09 09:24:13;;;;;;;136.25;89.30;;;;;;;4.35;66.57;93250.75;1762654;80;21416;-52
2022/01/09 09:26:42;;;;;;;130.87;77.50;;;;;;;4.43;66.38;93253.39;1779746;80;20971;-52
2022/01/09 09:29:09;;;;;;;130.50;80.65;;;;;;;4.44;65.89;93255.65;1779331;80;20943;-53
2022/01/09 09:31:35;;;;;;;111.47;72.42;;;;;;;4.29;65.89;93251.94;1780199;80;21167;-51
2022/01/09 09:34:04;;;;;;;94.28;64.03;;;;;;;4.13;66.01;93239.87;1776225;80;20939;-52
2022/01/09 09:36:32;;;;;;;90.57;58.55;;;;;;;3.97;66.23;93232.48;1760428;80;21533;-52
2022/01/09 09:38:59;;;;;;;100.67;65.92;;;;;;;3.84;66.60;93243.41;1761444;80;21470;-51
2022/01/09 09:41:26;;;;;;;128.35;87.02;;;;;;;3.78;66.85;93251.20;1751277;80;21253;-50
2022/01/09 09:43:53;;;;;;;134.40;88.47;;;;;;;3.64;67.02;93247.01;1748132;80;21589;-55
2022/01/09 09:46:25;;;;;;;155.00;99.30;;;;;;;3.56;67.47;93237.58;1744742;81;20966;-50
2022/01/09 09:48:54;;;;;;;155.85;104.87;;;;;;;3.66;68.04;93243.25;1767479;80;21104;-53
2022/01/09 09:51:25;;;;;;;184.55;123.18;;;;;;;3.90;68.01;93241.64;1752173;79;21695;-52
2022/01/09 09:53:52;;;;;;;175.60;116.00;;;;;;;4.11;67.59;93234.13;1753818;80;21336;-52
2022/01/09 09:56:19;;;;;;;194.37;128.18;;;;;;;4.27;66.99;93241.33;1756375;80;21809;-52
2022/01/09 09:58:51;;;;;;;231.63;155.85;;;;;;;4.34;66.80;93239.11;1773871;80;21015;-51
2022/01/09 10:01:30;;;;;;;233.32;152.70;;;;;;;4.53;66.83;93242.70;1744017;81;28573;-52
2022/01/09 10:04:05;;;;;;;257.73;166.57;;;;;;;4.62;66.04;93240.04;1764462;80;21072;-54
2022/01/09 10:06:43;;;;;;;256.65;163.45;;;;;;;4.59;65.96;93238.95;1757907;80;21498;-51
2022/01/09 10:09:14;;;;;;;249.55;152.85;;;;;;;4.52;65.97;93243.31;1768057;80;21124;-53
2022/01/09 10:12:00;;;;;;;254.85;159.97;;;;;;;4.40;66.00;93240.05;1747942;80;21053;-52
2022/01/09 10:14:30;;;;;;;263.95;165.15;;;;;;;4.28;66.40;93240.13;1772228;80;21474;-52
2022/01/09 10:17:17;;;;;;;226.42;142.32;;;;;;;4.17;66.54;93252.75;1729859;80;21089;-51
2022/01/09 10:19:55;;;;;;;222.93;145.00;;;;;;;4.12;66.67;93247.88;1761631;80;21560;-50
2022/01/09 10:22:30;;;;;;;256.38;162.22;;;;;;;3.95;66.87;93245.17;1725556;81;21212;-52
2022/01/09 10:25:17;;;;;;;242.70;156.10;;;;;;;3.80;67.39;93249.58;1708298;82;21413;-51
2022/01/09 10:27:44;;;;;;;245.67;153.50;;;;;;;3.81;67.70;93247.60;1735411;82;20980;-52
2022/01/09 10:30:12;;;;;;;255.20;167.77;;;;;;;3.81;67.85;93237.50;1722602;81;21462;-51
2022/01/09 10:32:39;;;;;;;250.60;162.32;;;;;;;3.88;68.13;93242.68;1707894;83;21074;-52
2022/01/09 10:35:11;;;;;;;237.95;154.97;;;;;;;3.95;67.88;93238.38;1708779;82;21130;-51
2022/01/09 10:37:43;;;;;;;219.28;139.90;;;;;;;4.00;68.05;93244.61;1739226;81;21080;-51
2022/01/09 10:40:18;;;;;;;223.35;138.85;;;;;;;4.07;68.02;93240.27;1724243;81;21501;-51
2022/01/09 10:42:48;;;;;;;231.05;146.85;;;;;;;4.17;67.75;93237.78;1713213;82;21133;-52
2022/01/09 10:45:24;;;;;;;244.15;153.72;;;;;;;4.23;67.70;93242.80;1711870;82;21034;-52
2022/01/09 10:47:56;;;;;;;228.27;142.30;;;;;;;4.42;67.69;93245.06;1737761;82;21146;-52
2022/01/09 10:50:28;;;;;;;234.15;150.40;;;;;;;4.70;67.03;93244.78;1722020;82;21123;-51
2022/01/09 10:53:18;;;;;;;260.88;163.80;;;;;;;4.85;66.82;93233.52;1707855;82;20989;-55
2022/01/09 10:56:03;;;;;;;263.55;172.02;;;;;;;5.06;66.46;93236.00;1730389;81;21021;-53
2022/01/09 10:58:34;;;;;;;291.08;187.97;;;;;;;5.16;66.39;93234.23;1740028;82;20965;-52
2022/01/09 11:01:31;;;;;;;383.57;233.50;;;;;;;5.27;66.24;93235.94;1706427;83;21118;-53
2022/01/09 11:04:04;;;;;;;273.02;159.45;;;;;;;5.34;66.13;93238.38;1712561;81;21455;-52
2022/01/09 11:06:36;;;;;;;220.93;136.18;;;;;;;5.45;65.59;93238.72;1724169;81;21442;-53
2022/01/09 11:09:05;;;;;;;195.70;120.82;;;;;;;5.47;65.24;93241.75;1705377;83;21168;-51
2022/01/09 11:11:40;;;;;;;115.52;70.75;;;;;;;5.48;65.00;93244.63;1710463;81;21058;-52
2022/01/09 11:14:13;;;;;;;83.75;55.23;;;;;;;5.57;63.57;93240.58;1702799;81;21142;-52
2022/01/09 11:16:43;;;;;;;108.95;66.80;;;;;;;5.69;62.33;93242.40;1727199;81;21459;-53